sensor_id;sensor_type;location;lat;lon;timestamp;temperature;humidity
41644;DHT22;44236;48.098;11.582;2023-07-20T05:32:40;25.00;50.80
41644;DHT22;44236;48.098;11.582;2023-07-20T05:35:06;25.00;51.00
41644;DHT22;44236;48.098;11.582;2023-07-20T05:37:31;25.10;51.00
41644;DHT22;44236;48.098;11.582;2023-07-20T05:39:57;25.00;50.80
41644;DHT22;44236;48.098;11.582;2023-07-20T05:42:23;25.00;50.80
41644;DHT22;44236;48.098;11.582;2023-07-20T05:44:49;25.10;50.90
41644;DHT22;44236;48.098;11.582;2023-07-20T05:47:15;25.10;51.00
41644;DHT22;44236;48.098;11.582;2023-07-20T05:49:41;25.10;51.00
41644;DHT22;44236;48.098;11.582;2023-07-20T05:52:07;25.10;50.80
41644;DHT22;44236;48.098;11.582;2023-07-20T05:54:32;25.10;50.80
41644;DHT22;44236;48.098;11.582;2023-07-20T05:56:58;25.10;50.70
41644;DHT22;44236;48.098;11.582;2023-07-20T05:59:24;25.10;50.60
41644;DHT22;44236;48.098;11.582;2023-07-20T06:01:50;25.10;50.50
41644;DHT22;44236;48.098;11.582;2023-07-20T06:04:15;25.10;50.20
41644;DHT22;44236;48.098;11.582;2023-07-20T06:06:41;25.10;50.10
41644;DHT22;44236;48.098;11.582;2023-07-20T06:09:07;25.20;50.20
41644;DHT22;44236;48.098;11.582;2023-07-20T06:11:40;25.10;49.80
41644;DHT22;44236;48.098;11.582;2023-07-20T06:14:06;25.20;49.80
41644;DHT22;44236;48.098;11.582;2023-07-20T06:16:31;25.10;49.80
41644;DHT22;44236;48.098;11.582;2023-07-20T06:18:58;25.20;49.40
41644;DHT22;44236;48.098;11.582;2023-07-20T06:21:24;25.20;50.00
41644;DHT22;44236;48.098;11.582;2023-07-20T06:23:49;25.00;49.70
41644;DHT22;44236;48.098;11.582;2023-07-20T06:26:15;25.00;49.90
41644;DHT22;44236;48.098;11.582;2023-07-20T06:28:41;25.10;50.00
41644;DHT22;44236;48.098;11.582;2023-07-20T06:31:06;25.10;50.10
41644;DHT22;44236;48.098;11.582;2023-07-20T06:33:32;25.20;49.90
41644;DHT22;44236;48.098;11.582;2023-07-20T06:35:58;25.20;49.80
41644;DHT22;44236;48.098;11.582;2023-07-20T06:38:23;25.20;50.00
41644;DHT22;44236;48.098;11.582;2023-07-20T06:40:50;25.20;49.90
41644;DHT22;44236;48.098;11.582;2023-07-20T06:43:16;25.20;49.70
41644;DHT22;44236;48.098;11.582;2023-07-20T06:45:42;25.20;49.80
41644;DHT22;44236;48.098;11.582;2023-07-20T06:48:08;25.20;49.90
41644;DHT22;44236;48.098;11.582;2023-07-20T06:50:33;25.20;50.00
41644;DHT22;44236;48.098;11.582;2023-07-20T06:52:59;25.20;50.10
41644;DHT22;44236;48.098;11.582;2023-07-20T06:55:25;25.30;50.80
41644;DHT22;44236;48.098;11.582;2023-07-20T06:57:51;25.30;50.70
41644;DHT22;44236;48.098;11.582;2023-07-20T07:00:17;25.30;50.80
41644;DHT22;44236;48.098;11.582;2023-07-20T07:02:43;25.30;50.70
41644;DHT22;44236;48.098;11.582;2023-07-20T07:05:09;25.30;50.60
41644;DHT22;44236;48.098;11.582;2023-07-20T07:07:34;25.30;50.70
41644;DHT22;44236;48.098;11.582;2023-07-20T07:10:01;25.30;50.60
41644;DHT22;44236;48.098;11.582;2023-07-20T07:12:29;25.30;50.60
41644;DHT22;44236;48.098;11.582;2023-07-20T07:14:54;25.30;50.60
41644;DHT22;44236;48.098;11.582;2023-07-20T07:17:20;25.30;50.50
41644;DHT22;44236;48.098;11.582;2023-07-20T07:19:45;25.40;50.60
41644;DHT22;44236;48.098;11.582;2023-07-20T07:22:11;25.30;50.30
41644;DHT22;44236;48.098;11.582;2023-07-20T07:24:37;25.40;50.60
41644;DHT22;44236;48.098;11.582;2023-07-20T07:27:03;25.40;50.60
41644;DHT22;44236;48.098;11.582;2023-07-20T07:29:29;25.40;50.50
41644;DHT22;44236;48.098;11.582;2023-07-20T07:31:55;25.40;50.60
41644;DHT22;44236;48.098;11.582;2023-07-20T07:34:20;25.40;50.50
41644;DHT22;44236;48.098;11.582;2023-07-20T07:36:46;25.40;50.50
41644;DHT22;44236;48.098;11.582;2023-07-20T07:39:12;25.40;50.30
41644;DHT22;44236;48.098;11.582;2023-07-20T07:41:38;25.40;50.30
41644;DHT22;44236;48.098;11.582;2023-07-20T07:44:04;25.40;50.50
41644;DHT22;44236;48.098;11.582;2023-07-20T07:46:30;25.40;50.60
41644;DHT22;44236;48.098;11.582;2023-07-20T07:48:55;25.40;50.50
41644;DHT22;44236;48.098;11.582;2023-07-20T07:51:21;25.40;50.60
41644;DHT22;44236;48.098;11.582;2023-07-20T07:53:47;25.40;50.40
41644;DHT22;44236;48.098;11.582;2023-07-20T07:56:14;25.50;50.50
41644;DHT22;44236;48.098;11.582;2023-07-20T07:58:40;25.50;50.40
41644;DHT22;44236;48.098;11.582;2023-07-20T08:01:06;25.40;50.50
41644;DHT22;44236;48.098;11.582;2023-07-20T08:03:31;25.50;50.30
41644;DHT22;44236;48.098;11.582;2023-07-20T08:05:57;25.50;50.60
41644;DHT22;44236;48.098;11.582;2023-07-20T08:08:24;25.50;50.50
41644;DHT22;44236;48.098;11.582;2023-07-20T08:10:52;25.50;50.60
41644;DHT22;44236;48.098;11.582;2023-07-20T08:13:18;25.50;50.30
41644;DHT22;44236;48.098;11.582;2023-07-20T08:15:50;25.50;50.40
41644;DHT22;44236;48.098;11.582;2023-07-20T08:18:17;25.50;50.30
41644;DHT22;44236;48.098;11.582;2023-07-20T08:20:46;25.50;50.90
41644;DHT22;44236;48.098;11.582;2023-07-20T08:23:12;25.50;50.20
41644;DHT22;44236;48.098;11.582;2023-07-20T08:25:39;25.50;50.30
41644;DHT22;44236;48.098;11.582;2023-07-20T08:28:13;25.50;50.20
41644;DHT22;44236;48.098;11.582;2023-07-20T08:30:45;25.50;50.20
41644;DHT22;44236;48.098;11.582;2023-07-20T08:33:14;25.50;50.30
41644;DHT22;44236;48.098;11.582;2023-07-20T08:35:40;25.50;50.20
41644;DHT22;44236;48.098;11.582;2023-07-20T08:38:06;25.50;50.00
41644;DHT22;44236;48.098;11.582;2023-07-20T08:40:33;25.50;50.30
41644;DHT22;44236;48.098;11.582;2023-07-20T08:43:00;25.50;50.10
41644;DHT22;44236;48.098;11.582;2023-07-20T08:45:27;25.50;50.10
41644;DHT22;44236;48.098;11.582;2023-07-20T08:47:58;25.50;50.20
41644;DHT22;44236;48.098;11.582;2023-07-20T08:50:27;25.50;50.20
41644;DHT22;44236;48.098;11.582;2023-07-20T08:52:56;25.50;50.20
41644;DHT22;44236;48.098;11.582;2023-07-20T08:55:23;25.50;50.10
41644;DHT22;44236;48.098;11.582;2023-07-20T08:57:50;25.60;50.20
41644;DHT22;44236;48.098;11.582;2023-07-20T09:00:19;25.60;50.10
41644;DHT22;44236;48.098;11.582;2023-07-20T09:02:46;25.60;50.20
41644;DHT22;44236;48.098;11.582;2023-07-20T09:05:12;25.60;50.30
41644;DHT22;44236;48.098;11.582;2023-07-20T09:07:41;25.60;50.30
41644;DHT22;44236;48.098;11.582;2023-07-20T09:10:07;25.60;50.10
41644;DHT22;44236;48.098;11.582;2023-07-20T09:12:41;25.50;50.10
41644;DHT22;44236;48.098;11.582;2023-07-20T09:15:07;25.60;50.20
41644;DHT22;44236;48.098;11.582;2023-07-20T09:17:34;25.60;50.10
41644;DHT22;44236;48.098;11.582;2023-07-20T09:20:07;25.60;50.00
41644;DHT22;44236;48.098;11.582;2023-07-20T09:22:37;25.60;50.00
41644;DHT22;44236;48.098;11.582;2023-07-20T09:25:17;25.60;50.00
41644;DHT22;44236;48.098;11.582;2023-07-20T09:27:45;25.60;50.00
41644;DHT22;44236;48.098;11.582;2023-07-20T09:30:13;25.60;50.00
41644;DHT22;44236;48.098;11.582;2023-07-20T09:32:49;25.70;50.10
41644;DHT22;44236;48.098;11.582;2023-07-20T09:35:20;25.60;50.00
41644;DHT22;44236;48.098;11.582;2023-07-20T09:37:58;25.60;50.10
41644;DHT22;44236;48.098;11.582;2023-07-20T09:40:25;25.60;50.10
41644;DHT22;44236;48.098;11.582;2023-07-20T09:42:53;25.70;50.10
41644;DHT22;44236;48.098;11.582;2023-07-20T09:45:29;25.70;50.10
41644;DHT22;44236;48.098;11.582;2023-07-20T09:48:04;25.70;50.10
41644;DHT22;44236;48.098;11.582;2023-07-20T09:50:30;25.70;50.10
41644;DHT22;44236;48.098;11.582;2023-07-20T09:52:56;25.70;50.10
41644;DHT22;44236;48.098;11.582;2023-07-20T09:55:23;25.70;50.10
41644;DHT22;44236;48.098;11.582;2023-07-20T09:57:49;25.70;50.10
41644;DHT22;44236;48.098;11.582;2023-07-20T10:00:16;25.70;50.10
41644;DHT22;44236;48.098;11.582;2023-07-20T10:02:44;25.70;50.10
41644;DHT22;44236;48.098;11.582;2023-07-20T10:05:12;25.70;50.10
41644;DHT22;44236;48.098;11.582;2023-07-20T10:07:52;25.70;50.10
41644;DHT22;44236;48.098;11.582;2023-07-20T10:10:19;25.70;50.20
41644;DHT22;44236;48.098;11.582;2023-07-20T10:12:47;25.70;50.20
41644;DHT22;44236;48.098;11.582;2023-07-20T10:20:46;25.70;50.10
41644;DHT22;44236;48.098;11.582;2023-07-20T10:23:12;25.70;50.20
41644;DHT22;44236;48.098;11.582;2023-07-20T10:25:38;25.70;50.20
41644;DHT22;44236;48.098;11.582;2023-07-20T10:28:07;25.70;50.10
41644;DHT22;44236;48.098;11.582;2023-07-20T10:30:36;25.70;50.20
41644;DHT22;44236;48.098;11.582;2023-07-20T10:33:05;25.70;50.30
41644;DHT22;44236;48.098;11.582;2023-07-20T10:35:54;25.70;50.20
41644;DHT22;44236;48.098;11.582;2023-07-20T10:38:20;25.70;50.20
41644;DHT22;44236;48.098;11.582;2023-07-20T10:40:54;25.70;50.30
41644;DHT22;44236;48.098;11.582;2023-07-20T10:43:20;25.70;50.30
41644;DHT22;44236;48.098;11.582;2023-07-20T10:45:53;25.70;50.30
41644;DHT22;44236;48.098;11.582;2023-07-20T10:51:08;25.80;50.40
41644;DHT22;44236;48.098;11.582;2023-07-20T10:53:31;25.80;50.40
41644;DHT22;44236;48.098;11.582;2023-07-20T10:56:14;25.80;50.30
41644;DHT22;44236;48.098;11.582;2023-07-20T10:58:40;25.80;50.30
41644;DHT22;44236;48.098;11.582;2023-07-20T11:01:13;25.80;50.30
41644;DHT22;44236;48.098;11.582;2023-07-20T11:03:40;25.80;50.30
41644;DHT22;44236;48.098;11.582;2023-07-20T11:06:35;25.80;50.40
41644;DHT22;44236;48.098;11.582;2023-07-20T11:09:10;25.80;50.30
41644;DHT22;44236;48.098;11.582;2023-07-20T11:11:41;25.80;50.40
41644;DHT22;44236;48.098;11.582;2023-07-20T11:14:11;25.80;50.40
41644;DHT22;44236;48.098;11.582;2023-07-20T11:16:46;25.80;50.40
41644;DHT22;44236;48.098;11.582;2023-07-20T11:19:16;25.80;50.40
41644;DHT22;44236;48.098;11.582;2023-07-20T11:21:43;25.80;50.40
41644;DHT22;44236;48.098;11.582;2023-07-20T11:24:09;25.80;50.50
41644;DHT22;44236;48.098;11.582;2023-07-20T11:26:50;25.80;50.40
41644;DHT22;44236;48.098;11.582;2023-07-20T11:29:17;25.80;50.50
41644;DHT22;44236;48.098;11.582;2023-07-20T11:31:44;25.90;50.50
41644;DHT22;44236;48.098;11.582;2023-07-20T11:34:15;25.80;50.40
41644;DHT22;44236;48.098;11.582;2023-07-20T11:36:41;25.90;50.50
41644;DHT22;44236;48.098;11.582;2023-07-20T11:39:12;25.90;50.50
41644;DHT22;44236;48.098;11.582;2023-07-20T11:41:38;25.90;50.50
41644;DHT22;44236;48.098;11.582;2023-07-20T11:44:06;25.90;50.50
41644;DHT22;44236;48.098;11.582;2023-07-20T11:46:33;25.90;50.50
41644;DHT22;44236;48.098;11.582;2023-07-20T11:49:00;25.90;50.50
41644;DHT22;44236;48.098;11.582;2023-07-20T11:51:27;25.90;50.60
41644;DHT22;44236;48.098;11.582;2023-07-20T11:53:53;25.90;50.60
41644;DHT22;44236;48.098;11.582;2023-07-20T11:56:19;25.90;50.60
41644;DHT22;44236;48.098;11.582;2023-07-20T11:58:45;25.90;50.60
41644;DHT22;44236;48.098;11.582;2023-07-20T12:01:14;25.90;50.60
41644;DHT22;44236;48.098;11.582;2023-07-20T12:03:42;25.90;50.60
41644;DHT22;44236;48.098;11.582;2023-07-20T12:06:13;25.90;50.60
41644;DHT22;44236;48.098;11.582;2023-07-20T12:08:40;25.90;50.60
41644;DHT22;44236;48.098;11.582;2023-07-20T12:11:07;25.90;50.60
41644;DHT22;44236;48.098;11.582;2023-07-20T12:13:42;25.90;50.60
41644;DHT22;44236;48.098;11.582;2023-07-20T12:16:14;25.90;50.60
41644;DHT22;44236;48.098;11.582;2023-07-20T12:18:42;25.90;50.60
41644;DHT22;44236;48.098;11.582;2023-07-20T12:21:08;25.90;50.60
41644;DHT22;44236;48.098;11.582;2023-07-20T12:23:41;25.90;50.60
41644;DHT22;44236;48.098;11.582;2023-07-20T12:26:12;25.90;50.60
41644;DHT22;44236;48.098;11.582;2023-07-20T12:28:40;25.90;50.60
41644;DHT22;44236;48.098;11.582;2023-07-20T12:31:09;26.00;50.70
41644;DHT22;44236;48.098;11.582;2023-07-20T12:33:36;25.90;50.60
41644;DHT22;44236;48.098;11.582;2023-07-20T12:36:02;26.00;50.70
41644;DHT22;44236;48.098;11.582;2023-07-20T12:38:28;26.00;50.70
41644;DHT22;44236;48.098;11.582;2023-07-20T12:40:56;26.00;50.70
41644;DHT22;44236;48.098;11.582;2023-07-20T12:43:21;26.00;50.70
41644;DHT22;44236;48.098;11.582;2023-07-20T12:45:47;26.00;50.70
41644;DHT22;44236;48.098;11.582;2023-07-20T12:48:13;26.00;50.70
41644;DHT22;44236;48.098;11.582;2023-07-20T12:50:39;26.00;50.70
41644;DHT22;44236;48.098;11.582;2023-07-20T12:53:04;26.00;50.70
41644;DHT22;44236;48.098;11.582;2023-07-20T12:55:30;26.00;50.70
41644;DHT22;44236;48.098;11.582;2023-07-20T12:57:56;26.00;50.70
41644;DHT22;44236;48.098;11.582;2023-07-20T13:00:21;26.00;50.70
41644;DHT22;44236;48.098;11.582;2023-07-20T13:02:51;26.00;50.70
41644;DHT22;44236;48.098;11.582;2023-07-20T13:05:17;26.00;50.70
41644;DHT22;44236;48.098;11.582;2023-07-20T13:07:43;26.00;50.70
41644;DHT22;44236;48.098;11.582;2023-07-20T13:10:10;26.00;50.80
41644;DHT22;44236;48.098;11.582;2023-07-20T13:12:36;26.00;50.70
41644;DHT22;44236;48.098;11.582;2023-07-20T13:15:03;26.00;50.70
41644;DHT22;44236;48.098;11.582;2023-07-20T13:17:32;26.00;50.80
41644;DHT22;44236;48.098;11.582;2023-07-20T13:19:58;26.00;50.80
41644;DHT22;44236;48.098;11.582;2023-07-20T13:22:24;26.00;50.70
41644;DHT22;44236;48.098;11.582;2023-07-20T13:24:50;26.00;51.40
41644;DHT22;44236;48.098;11.582;2023-07-20T13:27:16;26.00;50.80
41644;DHT22;44236;48.098;11.582;2023-07-20T13:29:42;26.00;50.70
41644;DHT22;44236;48.098;11.582;2023-07-20T13:32:09;26.10;50.80
41644;DHT22;44236;48.098;11.582;2023-07-20T13:34:35;26.10;49.80
41644;DHT22;44236;48.098;11.582;2023-07-20T13:37:01;26.10;48.40
41644;DHT22;44236;48.098;11.582;2023-07-20T13:39:27;26.10;45.40
41644;DHT22;44236;48.098;11.582;2023-07-20T13:41:53;26.10;47.00
41644;DHT22;44236;48.098;11.582;2023-07-20T13:44:20;26.10;49.40
41644;DHT22;44236;48.098;11.582;2023-07-20T13:46:46;26.10;44.20
41644;DHT22;44236;48.098;11.582;2023-07-20T13:49:12;26.10;47.60
41644;DHT22;44236;48.098;11.582;2023-07-20T13:51:37;26.10;49.40
41644;DHT22;44236;48.098;11.582;2023-07-20T13:54:04;26.10;46.80
41644;DHT22;44236;48.098;11.582;2023-07-20T13:56:29;26.10;47.90
41644;DHT22;44236;48.098;11.582;2023-07-20T13:58:55;26.10;44.40
41644;DHT22;44236;48.098;11.582;2023-07-20T14:01:20;26.00;46.80
41644;DHT22;44236;48.098;11.582;2023-07-20T14:03:48;26.00;47.70
41644;DHT22;44236;48.098;11.582;2023-07-20T14:06:14;26.00;46.70
41644;DHT22;44236;48.098;11.582;2023-07-20T14:08:40;26.10;47.10
41644;DHT22;44236;48.098;11.582;2023-07-20T14:11:06;26.00;45.20
41644;DHT22;44236;48.098;11.582;2023-07-20T14:13:32;26.10;44.40
41644;DHT22;44236;48.098;11.582;2023-07-20T14:15:58;26.10;47.20
41644;DHT22;44236;48.098;11.582;2023-07-20T14:18:24;26.10;47.80
41644;DHT22;44236;48.098;11.582;2023-07-20T14:20:49;26.10;44.60
41644;DHT22;44236;48.098;11.582;2023-07-20T14:23:15;26.10;44.70
41644;DHT22;44236;48.098;11.582;2023-07-20T14:25:41;26.10;47.00
41644;DHT22;44236;48.098;11.582;2023-07-20T14:28:07;26.10;47.20
41644;DHT22;44236;48.098;11.582;2023-07-20T14:30:33;26.10;47.60
41644;DHT22;44236;48.098;11.582;2023-07-20T14:32:58;26.10;47.50
41644;DHT22;44236;48.098;11.582;2023-07-20T14:35:24;26.10;48.00
41644;DHT22;44236;48.098;11.582;2023-07-20T14:37:50;26.10;48.70
41644;DHT22;44236;48.098;11.582;2023-07-20T14:40:15;26.10;47.90
41644;DHT22;44236;48.098;11.582;2023-07-20T14:42:41;26.10;47.90
41644;DHT22;44236;48.098;11.582;2023-07-20T14:45:07;26.10;48.00
41644;DHT22;44236;48.098;11.582;2023-07-20T14:47:33;26.10;47.90
41644;DHT22;44236;48.098;11.582;2023-07-20T14:50:03;26.10;48.00
41644;DHT22;44236;48.098;11.582;2023-07-20T14:52:30;26.10;48.00
41644;DHT22;44236;48.098;11.582;2023-07-20T14:54:56;26.10;48.10
41644;DHT22;44236;48.098;11.582;2023-07-20T14:57:21;26.10;48.10
41644;DHT22;44236;48.098;11.582;2023-07-20T14:59:49;26.10;48.10
41644;DHT22;44236;48.098;11.582;2023-07-20T15:02:15;26.10;48.10
41644;DHT22;44236;48.098;11.582;2023-07-20T15:04:51;26.10;48.20
41644;DHT22;44236;48.098;11.582;2023-07-20T15:07:18;26.10;48.20
41644;DHT22;44236;48.098;11.582;2023-07-20T15:09:44;26.10;48.20
41644;DHT22;44236;48.098;11.582;2023-07-20T15:12:10;26.10;48.20
41644;DHT22;44236;48.098;11.582;2023-07-20T15:14:39;26.10;48.30
41644;DHT22;44236;48.098;11.582;2023-07-20T15:17:05;26.20;48.40
41644;DHT22;44236;48.098;11.582;2023-07-20T15:19:30;26.20;48.40
41644;DHT22;44236;48.098;11.582;2023-07-20T15:21:56;26.20;48.40
41644;DHT22;44236;48.098;11.582;2023-07-20T15:24:22;26.20;48.40
41644;DHT22;44236;48.098;11.582;2023-07-20T15:26:47;26.20;48.40
41644;DHT22;44236;48.098;11.582;2023-07-20T15:29:13;26.20;48.40
41644;DHT22;44236;48.098;11.582;2023-07-20T15:31:39;26.20;48.40
41644;DHT22;44236;48.098;11.582;2023-07-20T15:34:04;26.20;48.40
41644;DHT22;44236;48.098;11.582;2023-07-20T15:36:30;26.20;48.50
41644;DHT22;44236;48.098;11.582;2023-07-20T15:38:56;26.20;49.10
41644;DHT22;44236;48.098;11.582;2023-07-20T15:41:22;26.20;48.50
41644;DHT22;44236;48.098;11.582;2023-07-20T15:43:47;26.20;48.60
41644;DHT22;44236;48.098;11.582;2023-07-20T15:48:46;26.20;48.60
41644;DHT22;44236;48.098;11.582;2023-07-20T15:51:11;26.20;48.60
41644;DHT22;44236;48.098;11.582;2023-07-20T15:53:37;26.20;48.60
41644;DHT22;44236;48.098;11.582;2023-07-20T15:56:03;26.20;48.60
41644;DHT22;44236;48.098;11.582;2023-07-20T15:58:29;26.20;49.20
41644;DHT22;44236;48.098;11.582;2023-07-20T16:00:55;26.20;48.70
41644;DHT22;44236;48.098;11.582;2023-07-20T16:03:25;26.20;48.70
41644;DHT22;44236;48.098;11.582;2023-07-20T16:05:52;26.20;48.80
41644;DHT22;44236;48.098;11.582;2023-07-20T16:08:18;26.20;48.80
41644;DHT22;44236;48.098;11.582;2023-07-20T16:10:44;26.20;48.80
41644;DHT22;44236;48.098;11.582;2023-07-20T16:13:10;26.20;48.90
41644;DHT22;44236;48.098;11.582;2023-07-20T16:15:35;26.20;48.90
41644;DHT22;44236;48.098;11.582;2023-07-20T16:18:01;26.20;48.90
41644;DHT22;44236;48.098;11.582;2023-07-20T16:20:27;26.20;48.90
41644;DHT22;44236;48.098;11.582;2023-07-20T16:22:53;26.30;49.00
41644;DHT22;44236;48.098;11.582;2023-07-20T16:25:19;26.30;49.10
41644;DHT22;44236;48.098;11.582;2023-07-20T16:27:44;26.30;49.00
41644;DHT22;44236;48.098;11.582;2023-07-20T16:30:10;26.30;49.00
41644;DHT22;44236;48.098;11.582;2023-07-20T16:32:37;26.30;49.00
41644;DHT22;44236;48.098;11.582;2023-07-20T16:35:03;26.30;49.10
41644;DHT22;44236;48.098;11.582;2023-07-20T16:37:29;26.20;49.00
41644;DHT22;44236;48.098;11.582;2023-07-20T16:39:55;26.30;49.20
41644;DHT22;44236;48.098;11.582;2023-07-20T16:42:20;26.30;49.20
41644;DHT22;44236;48.098;11.582;2023-07-20T16:44:50;26.30;49.20
41644;DHT22;44236;48.098;11.582;2023-07-20T16:47:16;26.30;49.20
41644;DHT22;44236;48.098;11.582;2023-07-20T16:49:41;26.30;49.20
41644;DHT22;44236;48.098;11.582;2023-07-20T16:52:07;26.30;50.20
41644;DHT22;44236;48.098;11.582;2023-07-20T16:54:33;26.30;47.60
41644;DHT22;44236;48.098;11.582;2023-07-20T16:56:58;26.30;46.50
41644;DHT22;44236;48.098;11.582;2023-07-20T16:59:24;26.30;45.40
41644;DHT22;44236;48.098;11.582;2023-07-20T17:01:50;26.20;45.70
41644;DHT22;44236;48.098;11.582;2023-07-20T17:04:17;26.30;45.80
41644;DHT22;44236;48.098;11.582;2023-07-20T17:06:47;26.20;44.50
41644;DHT22;44236;48.098;11.582;2023-07-20T17:09:13;26.20;43.00
41644;DHT22;44236;48.098;11.582;2023-07-20T17:11:40;26.20;43.50
41644;DHT22;44236;48.098;11.582;2023-07-20T17:14:07;26.20;43.00
41644;DHT22;44236;48.098;11.582;2023-07-20T17:16:33;26.20;43.10
41644;DHT22;44236;48.098;11.582;2023-07-20T17:18:59;26.10;42.80
41644;DHT22;44236;48.098;11.582;2023-07-20T17:21:25;26.10;43.00
41644;DHT22;44236;48.098;11.582;2023-07-20T17:23:52;26.10;42.20
41644;DHT22;44236;48.098;11.582;2023-07-20T17:26:18;26.10;42.30
41644;DHT22;44236;48.098;11.582;2023-07-20T17:28:43;26.10;42.40
41644;DHT22;44236;48.098;11.582;2023-07-20T17:31:09;26.10;41.70
41644;DHT22;44236;48.098;11.582;2023-07-20T17:33:34;26.10;40.70
41644;DHT22;44236;48.098;11.582;2023-07-20T17:36:00;26.00;42.50
41644;DHT22;44236;48.098;11.582;2023-07-20T17:38:26;26.10;41.80
41644;DHT22;44236;48.098;11.582;2023-07-20T17:40:52;26.00;41.20
41644;DHT22;44236;48.098;11.582;2023-07-20T17:43:18;26.00;42.00
41644;DHT22;44236;48.098;11.582;2023-07-20T17:45:50;26.00;41.00
41644;DHT22;44236;48.098;11.582;2023-07-20T17:48:16;26.00;41.30
41644;DHT22;44236;48.098;11.582;2023-07-20T17:50:43;26.00;41.10
41644;DHT22;44236;48.098;11.582;2023-07-20T17:53:09;26.00;40.90
41644;DHT22;44236;48.098;11.582;2023-07-20T17:55:35;26.00;40.80
41644;DHT22;44236;48.098;11.582;2023-07-20T17:58:01;25.90;40.10
41644;DHT22;44236;48.098;11.582;2023-07-20T18:00:28;25.90;40.00
41644;DHT22;44236;48.098;11.582;2023-07-20T18:02:54;25.90;40.20
41644;DHT22;44236;48.098;11.582;2023-07-20T18:05:19;25.80;40.20
41644;DHT22;44236;48.098;11.582;2023-07-20T18:07:45;25.80;40.00
41644;DHT22;44236;48.098;11.582;2023-07-20T18:10:11;25.80;40.10
41644;DHT22;44236;48.098;11.582;2023-07-20T18:12:36;25.80;40.40
41644;DHT22;44236;48.098;11.582;2023-07-20T18:15:04;25.80;39.70
41644;DHT22;44236;48.098;11.582;2023-07-20T18:17:31;25.80;39.80
41644;DHT22;44236;48.098;11.582;2023-07-20T18:19:57;25.70;39.60
41644;DHT22;44236;48.098;11.582;2023-07-20T18:22:23;25.70;39.30
41644;DHT22;44236;48.098;11.582;2023-07-20T18:24:49;25.70;39.50
41644;DHT22;44236;48.098;11.582;2023-07-20T18:27:16;25.70;39.30
41644;DHT22;44236;48.098;11.582;2023-07-20T18:29:42;25.60;39.00
41644;DHT22;44236;48.098;11.582;2023-07-20T18:32:08;25.60;39.10
41644;DHT22;44236;48.098;11.582;2023-07-20T18:34:33;25.60;39.10
41644;DHT22;44236;48.098;11.582;2023-07-20T18:36:59;25.60;39.30
41644;DHT22;44236;48.098;11.582;2023-07-20T18:39:25;25.60;39.10
41644;DHT22;44236;48.098;11.582;2023-07-20T18:41:50;25.50;38.70
41644;DHT22;44236;48.098;11.582;2023-07-20T18:47:38;25.50;38.70
41644;DHT22;44236;48.098;11.582;2023-07-20T18:50:05;25.50;39.20
41644;DHT22;44236;48.098;11.582;2023-07-20T18:52:30;25.50;38.90
41644;DHT22;44236;48.098;11.582;2023-07-20T18:54:56;25.50;38.80
41644;DHT22;44236;48.098;11.582;2023-07-20T18:57:23;25.50;38.70
41644;DHT22;44236;48.098;11.582;2023-07-20T18:59:49;25.50;38.90
41644;DHT22;44236;48.098;11.582;2023-07-20T19:02:14;25.40;38.80
41644;DHT22;44236;48.098;11.582;2023-07-20T19:04:40;25.50;38.70
41644;DHT22;44236;48.098;11.582;2023-07-20T19:07:06;25.40;38.30
41644;DHT22;44236;48.098;11.582;2023-07-20T19:09:37;25.40;38.50
41644;DHT22;44236;48.098;11.582;2023-07-20T19:12:03;25.40;38.30
41644;DHT22;44236;48.098;11.582;2023-07-20T19:14:33;25.40;38.20
41644;DHT22;44236;48.098;11.582;2023-07-20T19:16:59;25.30;38.30
41644;DHT22;44236;48.098;11.582;2023-07-20T19:19:24;25.30;38.30
41644;DHT22;44236;48.098;11.582;2023-07-20T19:21:50;25.30;38.20
41644;DHT22;44236;48.098;11.582;2023-07-20T19:24:17;25.30;38.30
41644;DHT22;44236;48.098;11.582;2023-07-20T19:26:42;25.30;38.10
41644;DHT22;44236;48.098;11.582;2023-07-20T19:29:08;25.30;38.20
41644;DHT22;44236;48.098;11.582;2023-07-20T19:31:33;25.20;38.40
41644;DHT22;44236;48.098;11.582;2023-07-20T19:33:59;25.20;39.20
41644;DHT22;44236;48.098;11.582;2023-07-20T19:36:25;25.10;39.10
41644;DHT22;44236;48.098;11.582;2023-07-20T19:38:50;25.00;39.20
41644;DHT22;44236;48.098;11.582;2023-07-20T19:41:19;25.00;39.30
41644;DHT22;44236;48.098;11.582;2023-07-20T19:43:45;25.00;40.00
41644;DHT22;44236;48.098;11.582;2023-07-20T19:46:10;25.00;40.00
41644;DHT22;44236;48.098;11.582;2023-07-20T19:48:39;25.00;39.90
41644;DHT22;44236;48.098;11.582;2023-07-20T19:51:04;25.00;40.20
41644;DHT22;44236;48.098;11.582;2023-07-20T19:53:30;25.00;40.30
41644;DHT22;44236;48.098;11.582;2023-07-20T19:56:00;25.00;40.20
41644;DHT22;44236;48.098;11.582;2023-07-20T19:58:27;24.90;40.20
41644;DHT22;44236;48.098;11.582;2023-07-20T20:00:52;24.90;40.40
41644;DHT22;44236;48.098;11.582;2023-07-20T20:03:18;24.90;40.80
41644;DHT22;44236;48.098;11.582;2023-07-20T20:05:44;24.90;40.90
41644;DHT22;44236;48.098;11.582;2023-07-20T20:08:09;24.90;41.20
41644;DHT22;44236;48.098;11.582;2023-07-20T20:10:37;24.90;41.50
41644;DHT22;44236;48.098;11.582;2023-07-20T20:13:03;24.90;41.70
41644;DHT22;44236;48.098;11.582;2023-07-20T20:15:31;24.80;41.90
41644;DHT22;44236;48.098;11.582;2023-07-20T20:17:57;24.80;42.10
41644;DHT22;44236;48.098;11.582;2023-07-20T20:20:31;24.80;42.40
41644;DHT22;44236;48.098;11.582;2023-07-20T20:23:00;24.90;42.50
41644;DHT22;44236;48.098;11.582;2023-07-20T20:25:26;24.80;43.10
41644;DHT22;44236;48.098;11.582;2023-07-20T20:27:51;24.80;42.70
41644;DHT22;44236;48.098;11.582;2023-07-20T20:30:17;24.90;42.90
41644;DHT22;44236;48.098;11.582;2023-07-20T20:32:44;24.90;43.00
41644;DHT22;44236;48.098;11.582;2023-07-20T20:35:10;24.90;43.00
41644;DHT22;44236;48.098;11.582;2023-07-20T20:37:36;24.90;43.20
41644;DHT22;44236;48.098;11.582;2023-07-20T20:40:02;24.90;43.30
41644;DHT22;44236;48.098;11.582;2023-07-20T20:42:32;24.90;43.50
41644;DHT22;44236;48.098;11.582;2023-07-20T20:45:00;24.90;43.60
41644;DHT22;44236;48.098;11.582;2023-07-20T20:47:25;24.80;43.80
41644;DHT22;44236;48.098;11.582;2023-07-20T20:49:51;24.80;44.00
41644;DHT22;44236;48.098;11.582;2023-07-20T20:52:18;24.80;44.20
41644;DHT22;44236;48.098;11.582;2023-07-20T20:54:45;24.80;44.40
41644;DHT22;44236;48.098;11.582;2023-07-20T20:57:11;24.80;44.60
41644;DHT22;44236;48.098;11.582;2023-07-20T20:59:36;24.80;44.80